Time;durP1;ratioP1;P1;durP2;ratioP2;P2;SDS_P1;SDS_P2;PMS_P1;PMS_P2;Temp;Humidity;BMP_temperature;BMP_pressure;BME280_temperature;BME280_humidity;BME280_pressure;Samples;Min_cycle;Max_cycle;Signal;HPM_P1;HPM_P2
2022/01/07 00:00:16;;;;;;;14.70;10.20;;;;;;;0.64;89.56;98479.75;4846997;29;20640;-86
2022/01/07 00:02:44;;;;;;;20.00;11.83;;;;;;;0.64;89.87;98488.28;4833077;29;21321;-86
2022/01/07 00:05:15;;;;;;;14.30;9.53;;;;;;;0.69;89.65;98501.00;4848299;29;21450;-87
2022/01/07 00:07:43;;;;;;;14.80;10.40;;;;;;;0.69;90.58;98499.31;4841505;29;20703;-87
2022/01/07 00:10:14;;;;;;;17.67;10.70;;;;;;;0.65;89.67;98500.25;4846844;29;21105;-86
2022/01/07 00:12:43;;;;;;;18.60;10.00;;;;;;;0.68;89.08;98499.34;4846592;29;20655;-87
2022/01/07 00:15:12;;;;;;;26.90;11.47;;;;;;;0.68;89.67;98494.22;4830983;29;21146;-87
2022/01/07 00:17:40;;;;;;;20.10;10.63;;;;;;;0.63;90.09;98494.31;4859983;29;20653;-87
2022/01/07 00:20:11;;;;;;;24.73;11.20;;;;;;;0.63;89.92;98485.75;4846163;29;20656;-87
2022/01/07 00:22:41;;;;;;;23.23;11.00;;;;;;;0.56;90.02;98477.38;4848982;29;20700;-87
2022/01/07 00:25:11;;;;;;;32.43;10.70;;;;;;;0.50;89.23;98472.38;4847742;29;20630;-87
2022/01/07 00:27:39;;;;;;;23.67;10.73;;;;;;;0.49;90.27;98469.84;4858299;29;20674;-87
2022/01/07 00:30:09;;;;;;;26.03;10.73;;;;;;;0.50;89.95;98474.94;4843142;29;20643;-86
2022/01/07 00:32:37;;;;;;;19.03;10.63;;;;;;;0.48;90.19;98468.16;4848572;29;20643;-86
2022/01/07 00:35:07;;;;;;;22.03;9.83;;;;;;;0.41;90.15;98468.34;4825526;29;21016;-87
2022/01/07 00:37:35;;;;;;;30.97;10.20;;;;;;;0.34;89.89;98464.25;4847820;29;20653;-86
2022/01/07 00:40:07;;;;;;;22.10;11.10;;;;;;;0.31;91.24;98461.75;4862587;29;20643;-87
2022/01/07 00:42:35;;;;;;;28.70;11.10;;;;;;;0.28;90.48;98459.25;4849306;29;20743;-87
2022/01/07 00:45:04;;;;;;;29.73;10.80;;;;;;;0.26;90.68;98448.19;4850772;29;20650;-86
2022/01/07 00:47:32;;;;;;;32.37;9.90;;;;;;;0.22;90.82;98449.13;4850354;29;20652;-88
2022/01/07 00:50:00;;;;;;;23.70;10.00;;;;;;;0.18;90.09;98452.63;4834233;29;20646;-87
2022/01/07 00:52:29;;;;;;;30.47;10.13;;;;;;;0.16;90.46;98450.09;4833812;29;20668;-86
2022/01/07 00:54:57;;;;;;;24.43;9.67;;;;;;;0.09;89.82;98447.69;4849070;29;20656;-86
2022/01/07 00:57:26;;;;;;;20.93;8.80;;;;;;;0.07;90.18;98455.41;4849329;29;20646;-87
2022/01/07 00:59:55;;;;;;;13.40;8.63;;;;;;;0.08;90.91;98456.28;4847911;29;20642;-87
2022/01/07 01:02:23;;;;;;;15.20;9.33;;;;;;;0.11;90.45;98453.66;4850309;29;20660;-87
2022/01/07 01:04:51;;;;;;;12.05;8.02;;;;;;;0.09;89.75;98452.81;4852390;29;20637;-87
2022/01/07 01:07:20;;;;;;;16.00;8.57;;;;;;;0.10;89.91;98452.78;4850839;29;20710;-87
2022/01/07 01:09:48;;;;;;;18.00;8.80;;;;;;;0.04;89.90;98450.38;4850101;29;21476;-86
2022/01/07 01:12:16;;;;;;;18.17;10.13;;;;;;;0.02;90.30;98451.28;4848337;29;21257;-86
2022/01/07 01:14:45;;;;;;;22.85;9.32;;;;;;;0.01;89.70;98445.31;4852985;29;20706;-87
2022/01/07 01:17:14;;;;;;;18.33;9.23;;;;;;;0.01;89.81;98447.88;4836556;29;20225;-87
2022/01/07 01:19:42;;;;;;;17.00;8.77;;;;;;;0.02;89.95;98447.00;4851062;29;20629;-87
2022/01/07 01:22:10;;;;;;;23.97;10.27;;;;;;;0.01;90.11;98444.47;4850233;29;20218;-86
2022/01/07 01:24:39;;;;;;;27.17;9.27;;;;;;;-0.02;90.39;98443.69;4848445;29;20641;-87
2022/01/07 01:27:07;;;;;;;19.70;9.75;;;;;;;-0.01;89.97;98435.16;4863090;29;20639;-87
2022/01/07 01:29:35;;;;;;;18.50;9.50;;;;;;;-0.07;89.94;98436.13;4862670;29;20229;-87
2022/01/07 01:32:06;;;;;;;22.80;9.47;;;;;;;-0.10;89.16;98437.91;4847092;29;20647;-86
2022/01/07 01:34:34;;;;;;;17.23;9.77;;;;;;;-0.14;89.26;98431.97;4846857;29;20634;-87
2022/01/07 01:37:02;;;;;;;12.30;7.90;;;;;;;-0.16;89.55;98430.34;4861127;29;20635;-87
2022/01/07 01:39:30;;;;;;;14.52;9.07;;;;;;;-0.16;88.47;98430.34;4835569;29;20645;-86
2022/01/07 01:41:58;;;;;;;15.10;9.50;;;;;;;-0.23;87.73;98432.16;4832577;29;20209;-86
2022/01/07 01:44:27;;;;;;;15.15;8.15;;;;;;;-0.23;87.65;98428.78;4849997;29;20639;-86
2022/01/07 01:46:56;;;;;;;11.68;8.55;;;;;;;-0.20;87.51;98423.59;4831896;29;20212;-86
2022/01/07 01:49:25;;;;;;;11.07;7.57;;;;;;;-0.19;88.04;98423.56;4846877;29;20229;-86
2022/01/07 01:51:54;;;;;;;10.63;7.43;;;;;;;-0.14;89.19;98426.84;4844597;29;20212;-87
2022/01/07 01:54:22;;;;;;;12.57;7.47;;;;;;;-0.15;88.98;98424.31;4851423;29;20815;-86
2022/01/07 01:56:50;;;;;;;11.10;8.00;;;;;;;-0.12;89.35;98425.13;4830985;29;20645;-87
2022/01/07 01:59:24;;;;;;;13.83;8.80;;;;;;;-0.10;89.66;98419.97;4849721;29;20738;-86
2022/01/07 02:01:53;;;;;;;17.35;9.05;;;;;;;-0.04;90.09;98418.09;4832909;29;20657;-86
2022/01/07 02:04:21;;;;;;;14.20;8.00;;;;;;;0.02;90.35;98415.41;4834460;29;20213;-86
2022/01/07 02:06:51;;;;;;;11.93;8.00;;;;;;;0.05;89.69;98412.78;4849851;29;20682;-86
2022/01/07 02:09:24;;;;;;;13.67;8.70;;;;;;;0.05;90.25;98411.06;4847378;29;21237;-86
2022/01/07 02:11:53;;;;;;;14.63;9.35;;;;;;;0.07;90.56;98408.47;4864605;29;21021;-86
2022/01/07 02:14:21;;;;;;;12.87;8.20;;;;;;;0.07;90.31;98399.03;4850914;29;20209;-87
2022/01/07 02:16:49;;;;;;;13.18;8.30;;;;;;;0.09;90.08;98393.88;4852950;29;21168;-86
2022/01/07 02:19:17;;;;;;;15.07;8.23;;;;;;;0.11;90.11;98385.28;4850786;29;20691;-86
2022/01/07 02:21:47;;;;;;;12.87;8.33;;;;;;;0.14;89.31;98379.25;4829973;29;20669;-86
2022/01/07 02:24:15;;;;;;;13.90;8.20;;;;;;;0.16;88.86;98372.38;4833765;29;20649;-86
2022/01/07 02:26:45;;;;;;;12.60;7.90;;;;;;;0.14;88.62;98367.28;4848243;29;20659;-86
2022/01/07 02:29:13;;;;;;;10.55;7.43;;;;;;;0.17;88.50;98368.94;4845178;29;20678;-86
2022/01/07 02:31:41;;;;;;;15.60;9.23;;;;;;;0.19;88.63;98365.44;4850022;29;20221;-86
2022/01/07 02:34:09;;;;;;;11.97;8.20;;;;;;;0.22;89.04;98367.09;4847470;29;20649;-87
2022/01/07 02:36:37;;;;;;;14.37;8.67;;;;;;;0.24;89.28;98365.34;4864485;29;21191;-87
2022/01/07 02:39:07;;;;;;;15.27;9.17;;;;;;;0.24;88.18;98373.03;4832566;29;20631;-87
2022/01/07 02:41:35;;;;;;;12.33;8.30;;;;;;;0.25;88.46;98362.72;4864194;29;20663;-87
2022/01/07 02:44:03;;;;;;;13.57;7.43;;;;;;;0.26;88.86;98364.44;4863896;29;20645;-86
2022/01/07 02:46:32;;;;;;;12.53;8.20;;;;;;;0.27;89.17;98366.13;4849679;29;21218;-86
2022/01/07 02:49:00;;;;;;;15.93;8.13;;;;;;;0.26;88.18;98354.16;4846976;29;20688;-86
2022/01/07 02:51:28;;;;;;;14.70;9.07;;;;;;;0.26;88.04;98361.03;4848113;29;23190;-87
2022/01/07 02:53:57;;;;;;;16.13;7.90;;;;;;;0.25;87.91;98367.03;4846009;29;20639;-86
2022/01/07 02:56:26;;;;;;;13.20;8.20;;;;;;;0.25;88.04;98367.84;4846233;29;21283;-86
2022/01/07 02:58:55;;;;;;;16.33;8.23;;;;;;;0.27;87.77;98370.38;4847327;29;20646;-86
2022/01/07 03:01:23;;;;;;;14.23;8.10;;;;;;;0.25;87.42;98372.16;4830736;29;20657;-86
2022/01/07 03:03:51;;;;;;;11.33;8.00;;;;;;;0.23;87.68;98366.22;4847374;29;20657;-87
2022/01/07 03:06:20;;;;;;;12.20;8.20;;;;;;;0.20;88.00;98363.75;4849936;29;20681;-86
2022/01/07 03:08:50;;;;;;;17.00;8.13;;;;;;;0.19;87.99;98357.75;4848635;29;20633;-86
2022/01/07 03:11:18;;;;;;;11.60;7.87;;;;;;;0.19;88.24;98362.88;4834340;29;20636;-86
2022/01/07 03:13:48;;;;;;;12.97;8.40;;;;;;;0.21;88.48;98355.16;4844391;29;21070;-86
2022/01/07 03:16:16;;;;;;;10.63;7.23;;;;;;;0.22;87.80;98360.25;4854900;29;21198;-86
2022/01/07 03:18:44;;;;;;;13.10;7.00;;;;;;;0.20;87.52;98358.59;4847523;29;20634;-86
2022/01/07 03:21:14;;;;;;;11.67;7.63;;;;;;;0.18;87.45;98352.66;4847612;29;20659;-86
2022/01/07 03:23:42;;;;;;;12.40;7.90;;;;;;;0.18;87.12;98350.97;4849353;29;20654;-86
2022/01/07 03:26:11;;;;;;;11.97;7.60;;;;;;;0.21;86.99;98350.03;4847092;29;20642;-86
2022/01/07 03:28:39;;;;;;;12.10;7.93;;;;;;;0.19;88.14;98351.78;4831774;29;21009;-86
2022/01/07 03:31:09;;;;;;;13.40;8.87;;;;;;;0.22;88.25;98352.53;4847649;29;20674;-86
2022/01/07 03:33:37;;;;;;;12.20;8.40;;;;;;;0.19;87.74;98350.06;4861155;29;20760;-87
2022/01/07 03:36:05;;;;;;;12.87;7.50;;;;;;;0.17;87.54;98351.00;4853233;29;20646;-86
2022/01/07 03:38:34;;;;;;;14.60;7.37;;;;;;;0.13;86.78;98354.50;4851762;29;20900;-86
2022/01/07 03:41:02;;;;;;;17.70;8.87;;;;;;;0.12;87.16;98353.66;4847159;29;20643;-87
2022/01/07 03:43:31;;;;;;;12.00;7.93;;;;;;;0.14;87.50;98364.72;4848248;29;21253;-86
2022/01/07 03:45:59;;;;;;;11.40;8.30;;;;;;;0.14;87.03;98359.59;4831064;29;20650;-86
2022/01/07 03:48:29;;;;;;;13.27;8.20;;;;;;;0.13;87.52;98367.31;4848392;29;21027;-87
2022/01/07 03:50:57;;;;;;;14.40;8.47;;;;;;;0.12;87.03;98356.22;4848465;29;20656;-86
2022/01/07 03:53:25;;;;;;;11.47;8.20;;;;;;;0.12;87.17;98357.94;4849047;29;20666;-87
2022/01/07 03:55:54;;;;;;;13.47;7.40;;;;;;;0.12;87.24;98352.81;4862089;29;20649;-87
2022/01/07 03:58:23;;;;;;;11.47;7.80;;;;;;;0.14;86.67;98364.72;4846290;29;20679;-86
2022/01/07 04:00:51;;;;;;;11.30;7.57;;;;;;;0.14;86.92;98366.44;4862434;29;20632;-86
2022/01/07 04:03:20;;;;;;;15.17;8.50;;;;;;;0.17;87.26;98358.69;4847451;29;20745;-87
2022/01/07 04:05:49;;;;;;;16.70;8.90;;;;;;;0.19;87.40;98364.59;4845568;29;20677;-86
2022/01/07 04:08:17;;;;;;;12.17;7.37;;;;;;;0.21;87.74;98370.53;4838856;29;21005;-86
2022/01/07 04:10:45;;;;;;;12.33;8.30;;;;;;;0.22;87.65;98367.09;4851773;29;20671;-86
2022/01/07 04:13:14;;;;;;;13.87;8.60;;;;;;;0.17;86.52;98366.38;4846326;29;21215;-86
2022/01/07 04:15:42;;;;;;;13.00;7.87;;;;;;;0.13;87.08;98359.63;4846560;29;21077;-86
2022/01/07 04:18:13;;;;;;;12.70;7.90;;;;;;;0.13;87.40;98362.19;4851912;29;20656;-87
2022/01/07 04:20:41;;;;;;;12.00;7.85;;;;;;;0.13;87.75;98369.88;4853963;29;20648;-87
2022/01/07 04:23:11;;;;;;;12.43;8.17;;;;;;;0.13;86.91;98367.31;4847776;29;20218;-86
2022/01/07 04:25:43;;;;;;;11.33;7.47;;;;;;;0.12;87.49;98368.19;4849138;29;21222;-86
2022/01/07 04:28:11;;;;;;;15.47;7.53;;;;;;;0.11;87.14;98375.03;4853034;29;20641;-86
2022/01/07 04:30:41;;;;;;;11.57;7.35;;;;;;;0.10;87.24;98372.50;4832330;29;20669;-87
2022/01/07 04:33:12;;;;;;;15.93;7.88;;;;;;;0.05;87.08;98361.53;4865837;29;20213;-87
2022/01/07 04:35:42;;;;;;;13.27;8.10;;;;;;;0.01;86.70;98358.16;4835738;29;20707;-86
2022/01/07 04:38:12;;;;;;;12.37;7.77;;;;;;;-0.03;86.97;98360.88;4850659;29;23211;-87
2022/01/07 04:40:40;;;;;;;10.13;7.97;;;;;;;-0.08;87.23;98365.22;4848316;29;20645;-86
2022/01/07 04:43:08;;;;;;;14.37;8.03;;;;;;;-0.12;86.68;98361.06;4833558;29;20647;-86
2022/01/07 04:45:37;;;;;;;12.90;7.45;;;;;;;-0.19;87.26;98353.56;4850606;29;20636;-86
2022/01/07 04:48:05;;;;;;;12.90;7.13;;;;;;;-0.13;89.77;98358.56;4856373;29;20224;-86
2022/01/07 04:50:34;;;;;;;10.13;7.10;;;;;;;-0.07;90.51;98359.25;4865520;29;20664;-87
2022/01/07 04:53:02;;;;;;;14.70;7.17;;;;;;;0.03;91.21;98347.88;4849974;29;20647;-87
2022/01/07 04:55:37;;;;;;;15.50;7.72;;;;;;;0.08;91.22;98364.84;4847590;29;20749;-86
2022/01/07 04:58:07;;;;;;;13.17;6.33;;;;;;;0.17;91.39;98364.63;4849929;29;20208;-87
2022/01/07 05:00:36;;;;;;;12.37;6.60;;;;;;;0.26;91.17;98376.41;4850004;29;20638;-87
2022/01/07 05:03:04;;;;;;;13.43;6.40;;;;;;;0.35;91.04;98368.50;4850285;29;20645;-86
2022/01/07 05:05:32;;;;;;;13.80;6.40;;;;;;;0.41;91.11;98373.44;4851080;29;20629;-86
2022/01/07 05:08:02;;;;;;;10.77;6.97;;;;;;;0.46;90.61;98373.31;4865167;29;20669;-86
2022/01/07 05:10:31;;;;;;;11.53;6.97;;;;;;;0.48;90.63;98371.56;4852018;29;21491;-86
2022/01/07 05:12:59;;;;;;;14.03;7.07;;;;;;;0.48;90.51;98369.00;4830842;29;21042;-86
2022/01/07 05:15:27;;;;;;;11.17;6.30;;;;;;;0.51;90.45;98374.06;4848338;29;21223;-86
2022/01/07 05:17:59;;;;;;;10.90;7.13;;;;;;;0.48;90.20;98366.44;4854892;29;20669;-87
2022/01/07 05:20:27;;;;;;;10.63;7.03;;;;;;;0.55;90.19;98369.69;4852766;29;21194;-86
2022/01/07 05:22:55;;;;;;;17.93;7.43;;;;;;;0.57;90.38;98373.03;4851540;29;20640;-87
2022/01/07 05:25:23;;;;;;;18.90;7.60;;;;;;;0.64;90.20;98374.59;4847178;29;20656;-86
2022/01/07 05:27:52;;;;;;;12.20;7.23;;;;;;;0.68;90.52;98373.63;4848040;29;20657;-86
2022/01/07 05:30:21;;;;;;;9.30;6.33;;;;;;;0.68;89.50;98371.91;4849263;29;21232;-86
2022/01/07 05:32:49;;;;;;;11.00;6.77;;;;;;;0.67;89.44;98362.50;4849724;29;21015;-86
2022/01/07 05:35:17;;;;;;;8.87;6.50;;;;;;;0.66;89.20;98357.44;4851263;29;21123;-86
2022/01/07 05:37:45;;;;;;;10.87;6.77;;;;;;;0.60;89.38;98355.88;4835577;29;20644;-86
2022/01/07 05:40:14;;;;;;;13.33;6.67;;;;;;;0.56;90.08;98361.94;4848932;29;20653;-87
2022/01/07 05:42:42;;;;;;;11.00;6.10;;;;;;;0.57;89.74;98355.94;4849121;29;20737;-86
2022/01/07 05:45:12;;;;;;;10.20;6.10;;;;;;;0.65;90.03;98350.63;4851745;29;20656;-86
2022/01/07 05:47:40;;;;;;;15.20;7.10;;;;;;;0.72;89.37;98358.13;4851352;29;20653;-87
2022/01/07 05:50:09;;;;;;;12.83;6.80;;;;;;;0.81;89.36;98357.88;4851583;29;20641;-86
2022/01/07 05:52:38;;;;;;;14.03;6.63;;;;;;;0.87;89.37;98359.44;4846130;29;20703;-87
2022/01/07 05:55:08;;;;;;;7.80;6.57;;;;;;;0.91;88.97;98349.06;4850307;29;21204;-86
2022/01/07 05:57:36;;;;;;;11.77;6.03;;;;;;;0.96;88.89;98344.63;4845213;29;22474;-86
2022/01/07 06:00:06;;;;;;;7.67;5.60;;;;;;;1.03;88.80;98338.47;4851529;29;20632;-87
2022/01/07 06:02:41;;;;;;;12.93;6.70;;;;;;;1.07;88.30;98342.63;4849437;29;20637;-87
2022/01/07 06:05:09;;;;;;;12.40;6.70;;;;;;;1.09;88.28;98341.69;4866194;29;20635;-86
2022/01/07 06:07:37;;;;;;;11.57;6.30;;;;;;;1.13;88.83;98353.56;4851580;29;21208;-86
2022/01/07 06:10:07;;;;;;;12.27;6.30;;;;;;;1.13;88.07;98347.59;4848421;29;20649;-87
2022/01/07 06:12:35;;;;;;;10.20;6.07;;;;;;;1.14;88.12;98342.44;4863947;29;20759;-86
2022/01/07 06:15:04;;;;;;;12.07;6.43;;;;;;;1.19;87.54;98342.28;4832816;29;20639;-86
2022/01/07 06:17:32;;;;;;;9.30;5.87;;;;;;;1.22;87.48;98337.91;4849140;29;20662;-86
2022/01/07 06:20:02;;;;;;;10.87;7.00;;;;;;;1.23;87.46;98331.03;4836968;29;20650;-86
2022/01/07 06:22:30;;;;;;;11.33;5.73;;;;;;;1.25;87.16;98337.84;4847465;29;20733;-87
2022/01/07 06:24:58;;;;;;;9.40;6.00;;;;;;;1.26;87.16;98333.53;4851926;29;21751;-86
2022/01/07 06:27:26;;;;;;;10.50;6.53;;;;;;;1.25;86.82;98331.84;4848580;29;20654;-86
2022/01/07 06:29:54;;;;;;;11.37;6.13;;;;;;;1.20;86.52;98326.00;4848467;29;20670;-86
2022/01/07 06:32:23;;;;;;;14.57;6.47;;;;;;;1.22;86.69;98319.09;4850644;29;21009;-86
2022/01/07 06:34:52;;;;;;;11.67;6.50;;;;;;;1.17;86.99;98316.63;4848117;29;20655;-86
2022/01/07 06:37:21;;;;;;;11.30;6.07;;;;;;;1.11;86.79;98324.53;4852661;29;20664;-86
2022/01/07 06:39:49;;;;;;;10.20;6.60;;;;;;;1.10;86.97;98316.88;4844769;29;20681;-86
2022/01/07 06:42:17;;;;;;;11.40;6.40;;;;;;;1.11;87.21;98324.53;4848396;29;20673;-86
2022/01/07 06:44:45;;;;;;;11.10;6.43;;;;;;;1.10;87.62;98328.00;4847528;29;20639;-86
2022/01/07 06:47:13;;;;;;;10.67;7.13;;;;;;;1.13;86.79;98330.47;4846239;29;20665;-86
2022/01/07 06:49:42;;;;;;;9.23;6.20;;;;;;;1.11;87.49;98321.13;4850723;29;20696;-87
2022/01/07 06:52:10;;;;;;;12.13;6.57;;;;;;;1.13;87.29;98321.94;4850496;29;20726;-86
2022/01/07 06:54:39;;;;;;;10.40;6.40;;;;;;;1.15;87.34;98330.44;4852700;29;20649;-86
2022/01/07 06:57:08;;;;;;;10.13;5.73;;;;;;;1.14;86.95;98331.31;4847225;29;20639;-86
2022/01/07 06:59:36;;;;;;;12.67;6.63;;;;;;;1.21;87.07;98330.25;4849043;29;20639;-86
2022/01/07 07:02:05;;;;;;;12.63;6.97;;;;;;;1.20;86.80;98324.25;4855618;29;20641;-87
2022/01/07 07:04:34;;;;;;;12.80;7.57;;;;;;;1.22;86.58;98327.66;4850673;29;20645;-86
2022/01/07 07:07:02;;;;;;;12.37;7.00;;;;;;;1.20;86.82;98334.53;4851345;29;20701;-86
2022/01/07 07:09:30;;;;;;;12.67;7.70;;;;;;;1.16;87.24;98321.84;4850487;29;20653;-86
2022/01/07 07:11:59;;;;;;;14.60;8.20;;;;;;;1.17;86.66;98318.38;4848216;29;21256;-86
2022/01/07 07:14:28;;;;;;;12.47;8.00;;;;;;;1.22;87.17;98317.38;4833343;29;20657;-86
2022/01/07 07:16:56;;;;;;;12.03;7.40;;;;;;;1.17;87.18;98318.38;4845866;29;20646;-87
2022/01/07 07:19:24;;;;;;;10.70;7.27;;;;;;;1.18;87.46;98320.91;4850162;29;20656;-86
2022/01/07 07:21:52;;;;;;;13.80;8.50;;;;;;;1.18;86.88;98320.06;4851902;29;20652;-87
2022/01/07 07:24:21;;;;;;;13.30;7.53;;;;;;;1.19;86.49;98312.31;4863099;29;20657;-86
2022/01/07 07:26:49;;;;;;;12.00;7.27;;;;;;;1.13;87.31;98303.97;4846410;29;20757;-86
2022/01/07 07:29:18;;;;;;;12.70;7.50;;;;;;;1.13;87.15;98303.97;4845926;29;20646;-85
2022/01/07 07:31:49;;;;;;;11.93;8.57;;;;;;;1.14;86.65;98290.22;4853843;29;20707;-85
2022/01/07 07:34:43;;;;;;;11.57;7.23;;;;;;;1.16;86.95;98293.59;4847128;29;20696;-86
2022/01/07 07:37:13;;;;;;;12.53;7.27;;;;;;;1.07;86.08;98293.88;4846128;29;20637;-84
2022/01/07 07:39:41;;;;;;;12.53;7.83;;;;;;;1.11;86.17;98295.44;4849374;29;21211;-84
2022/01/07 07:42:10;;;;;;;13.57;7.27;;;;;;;1.14;86.65;98292.78;4833926;29;20640;-84
2022/01/07 07:44:41;;;;;;;8.83;6.23;;;;;;;1.17;85.94;98293.53;4836187;29;21003;-84
2022/01/07 07:47:09;;;;;;;11.27;6.97;;;;;;;1.21;85.73;98289.19;4846266;29;20647;-84
2022/01/07 07:49:37;;;;;;;10.20;6.60;;;;;;;1.25;85.69;98291.63;4852416;29;20661;-85
2022/01/07 07:52:06;;;;;;;10.70;6.80;;;;;;;1.30;86.03;98299.19;4834639;29;21211;-81
2022/01/07 07:54:35;;;;;;;10.37;6.17;;;;;;;1.36;85.75;98294.69;4847305;29;20647;-81
2022/01/07 07:57:03;;;;;;;10.37;6.40;;;;;;;1.39;84.32;98293.78;4859855;29;20651;-81
2022/01/07 07:59:31;;;;;;;11.10;7.20;;;;;;;1.42;85.02;98290.22;4844980;29;20649;-81
2022/01/07 08:02:02;;;;;;;10.07;6.00;;;;;;;1.47;84.24;98283.25;4844887;29;20646;-81
2022/01/07 08:04:31;;;;;;;11.90;7.37;;;;;;;1.64;84.39;98281.00;4849726;29;21203;-82
2022/01/07 08:06:59;;;;;;;7.63;5.73;;;;;;;1.90;83.03;98287.00;4852047;29;21268;-82
2022/01/07 08:09:27;;;;;;;10.33;6.20;;;;;;;2.14;82.49;98267.38;4850534;29;20658;-82
2022/01/07 08:12:04;;;;;;;8.57;5.80;;;;;;;2.15;81.40;98266.47;4849439;29;20662;-82
2022/01/07 08:17:19;;;;;;;9.03;5.80;;;;;;;1.96;81.41;98270.56;4849120;29;20641;-82
2022/01/07 08:19:47;;;;;;;7.73;5.43;;;;;;;2.03;82.41;98274.59;4846047;29;20655;-82
2022/01/07 08:22:16;;;;;;;9.10;5.80;;;;;;;2.03;82.02;98264.31;4848503;29;20665;-83
2022/01/07 08:24:44;;;;;;;9.63;5.37;;;;;;;2.03;82.09;98265.16;4850127;29;21182;-80
2022/01/07 08:27:12;;;;;;;9.07;6.07;;;;;;;2.01;82.02;98261.78;4851960;29;21008;-81
2022/01/07 08:30:10;;;;;;;8.70;5.60;;;;;;;2.04;82.76;98264.25;4848242;29;20646;-82
2022/01/07 08:35:25;;;;;;;10.10;6.30;;;;;;;2.09;81.67;98246.97;4852985;29;20638;-82
2022/01/07 08:37:53;;;;;;;7.70;5.33;;;;;;;2.10;81.25;98248.63;4847123;29;20693;-82
2022/01/07 08:40:21;;;;;;;10.03;5.70;;;;;;;2.18;81.45;98243.22;4847948;29;20650;-83
2022/01/07 08:42:52;;;;;;;8.00;5.30;;;;;;;2.21;81.15;98248.28;4843469;29;20681;-82
2022/01/07 08:45:20;;;;;;;11.73;6.47;;;;;;;2.27;81.70;98248.06;4846773;29;21170;-82
2022/01/07 08:47:49;;;;;;;9.23;5.80;;;;;;;2.30;81.97;98247.97;4829758;29;20670;-81
2022/01/07 08:50:17;;;;;;;8.60;6.03;;;;;;;2.33;81.57;98250.44;4847569;29;20643;-81
2022/01/07 08:52:45;;;;;;;9.93;6.50;;;;;;;2.35;81.27;98241.78;4863932;29;20744;-81
2022/01/07 08:55:14;;;;;;;8.93;5.60;;;;;;;2.37;81.61;98245.16;4854139;29;20644;-82
2022/01/07 08:57:42;;;;;;;9.30;5.67;;;;;;;2.38;81.30;98244.25;4864770;29;20655;-82
2022/01/07 09:00:11;;;;;;;11.07;6.70;;;;;;;2.43;81.50;98243.19;4851133;29;20642;-81
2022/01/07 09:02:39;;;;;;;8.93;6.23;;;;;;;2.51;81.44;98245.50;4849797;29;20745;-81
2022/01/07 09:05:09;;;;;;;8.07;6.00;;;;;;;2.56;80.86;98247.03;4836539;29;20751;-82
2022/01/07 09:07:37;;;;;;;9.20;5.70;;;;;;;2.63;81.08;98250.22;4851799;29;20665;-82
2022/01/07 09:10:06;;;;;;;8.00;5.80;;;;;;;2.71;81.49;98246.50;4868210;29;20630;-82
2022/01/07 09:12:34;;;;;;;9.70;6.40;;;;;;;2.75;81.13;98247.22;4871078;29;20669;-82
2022/01/07 09:15:03;;;;;;;8.33;5.83;;;;;;;2.80;80.44;98252.16;4853704;29;20634;-82
2022/01/07 09:17:32;;;;;;;9.20;5.97;;;;;;;2.86;80.74;98251.13;4855382;29;20634;-82
2022/01/07 09:20:01;;;;;;;9.33;5.40;;;;;;;2.89;80.02;98238.97;4851325;29;20727;-82
2022/01/07 09:22:30;;;;;;;10.07;5.97;;;;;;;2.93;80.50;98244.84;4858472;29;21074;-81
2022/01/07 09:24:59;;;;;;;7.77;5.67;;;;;;;2.99;79.86;98245.47;4866958;29;21086;-82
2022/01/07 09:27:27;;;;;;;9.97;6.13;;;;;;;3.02;80.32;98236.78;4850663;29;20630;-82
2022/01/07 09:29:55;;;;;;;8.10;5.53;;;;;;;3.09;80.37;98233.09;4868328;29;20731;-82
2022/01/07 09:32:23;;;;;;;7.67;5.50;;;;;;;3.13;79.70;98238.09;4851743;29;20734;-82
2022/01/07 09:34:51;;;;;;;7.23;5.80;;;;;;;3.17;79.93;98237.06;4852422;29;20640;-82
2022/01/07 09:37:19;;;;;;;8.97;5.60;;;;;;;3.18;79.72;98240.50;4849036;29;20673;-82
2022/01/07 09:39:49;;;;;;;9.80;5.83;;;;;;;3.13;79.03;98235.50;4850617;29;20647;-82
2022/01/07 09:42:17;;;;;;;10.30;6.23;;;;;;;3.10;79.48;98235.63;4849600;29;20672;-82
2022/01/07 09:44:45;;;;;;;10.20;6.40;;;;;;;3.05;79.62;98236.66;4851322;29;20656;-82
2022/01/07 09:47:13;;;;;;;8.27;6.10;;;;;;;3.04;79.14;98235.84;4835150;29;21206;-82
2022/01/07 09:49:42;;;;;;;8.87;6.40;;;;;;;3.02;78.96;98232.50;4849046;29;20653;-82
2022/01/07 09:52:10;;;;;;;12.83;6.57;;;;;;;3.01;79.06;98232.56;4848500;29;20669;-82
2022/01/07 09:54:39;;;;;;;11.13;6.13;;;;;;;3.04;79.06;98235.00;4868827;29;20661;-82
2022/01/07 09:57:09;;;;;;;10.00;6.30;;;;;;;3.06;79.55;98228.88;4836671;29;20662;-82
2022/01/07 09:59:38;;;;;;;9.47;6.10;;;;;;;3.10;79.47;98225.31;4850809;29;20661;-82
2022/01/07 10:02:08;;;;;;;10.63;5.77;;;;;;;3.18;79.97;98227.59;4857363;29;21425;-82
2022/01/07 10:04:38;;;;;;;12.60;6.93;;;;;;;3.26;79.01;98215.28;4867970;29;20637;-82
2022/01/07 10:07:16;;;;;;;8.57;5.53;;;;;;;3.30;78.38;98218.50;4854610;29;20669;-82
2022/01/07 10:09:58;;;;;;;13.53;5.90;;;;;;;3.38;78.71;98211.34;4853273;29;21558;-83
2022/01/07 10:12:30;;;;;;;12.27;6.87;;;;;;;3.44;78.11;98210.25;4862689;29;21537;-82
2022/01/07 10:15:11;;;;;;;7.53;5.20;;;;;;;3.46;78.52;98206.72;4847907;29;20669;-84
2022/01/07 10:17:40;;;;;;;10.33;6.03;;;;;;;3.46;78.81;98203.31;4850224;29;21246;-84
2022/01/07 10:20:09;;;;;;;9.33;6.00;;;;;;;3.46;79.07;98198.16;4862955;29;20631;-83
2022/01/07 10:22:52;;;;;;;8.40;6.03;;;;;;;3.45;79.53;98197.31;4848918;29;21112;-83
2022/01/07 10:25:22;;;;;;;12.40;7.07;;;;;;;3.48;79.06;98197.19;4858914;29;20641;-83
2022/01/07 10:28:01;;;;;;;9.00;5.80;;;;;;;3.55;79.60;98188.31;4848907;29;20633;-82
2022/01/07 10:30:34;;;;;;;10.83;6.50;;;;;;;3.58;78.70;98188.22;4853978;29;20638;-82
2022/01/07 10:33:16;;;;;;;11.17;6.87;;;;;;;3.65;79.18;98194.78;4847237;29;20655;-83
2022/01/07 10:35:44;;;;;;;9.73;6.50;;;;;;;3.71;79.04;98193.72;4853899;29;20745;-83
2022/01/07 10:38:16;;;;;;;10.30;6.97;;;;;;;3.73;78.52;98191.00;4851399;29;20652;-83
2022/01/07 10:40:44;;;;;;;10.80;7.03;;;;;;;3.77;79.38;98183.97;4845448;29;21007;-83
2022/01/07 10:43:17;;;;;;;14.40;9.00;;;;;;;3.76;79.39;98184.91;4847470;29;20645;-82
2022/01/07 10:45:47;;;;;;;20.50;13.30;;;;;;;3.79;79.60;98184.78;4860829;29;20770;-82
2022/01/07 10:48:17;;;;;;;11.70;7.53;;;;;;;3.80;80.11;98189.00;4847172;29;21772;-82
2022/01/07 10:50:47;;;;;;;10.60;7.10;;;;;;;3.74;81.83;98182.38;4848746;29;20643;-82
2022/01/07 10:53:27;;;;;;;9.07;6.77;;;;;;;3.68;81.71;98180.94;4848024;29;20687;-82
2022/01/07 10:56:10;;;;;;;8.93;6.10;;;;;;;3.64;82.99;98187.97;4848389;29;20645;-82
2022/01/07 10:59:01;;;;;;;9.07;6.80;;;;;;;3.60;83.40;98173.50;4850589;29;21261;-82
2022/01/07 11:01:33;;;;;;;10.13;6.10;;;;;;;3.56;85.23;98177.09;4848098;29;20669;-82
2022/01/07 11:04:04;;;;;;;10.37;5.73;;;;;;;3.52;85.86;98172.97;4849860;29;20640;-82
2022/01/07 11:06:32;;;;;;;13.00;6.33;;;;;;;3.43;86.36;98175.09;4849801;29;21063;-82
2022/01/07 11:09:01;;;;;;;8.93;6.23;;;;;;;3.45;86.84;98170.72;4832606;29;20658;-82
2022/01/07 11:11:31;;;;;;;8.60;6.33;;;;;;;3.45;87.26;98165.56;4845959;29;21236;-82
2022/01/07 11:14:06;;;;;;;9.30;6.53;;;;;;;3.46;88.36;98168.06;4847551;29;20657;-82
2022/01/07 11:16:36;;;;;;;11.20;7.13;;;;;;;3.48;88.08;98160.28;4832277;29;20655;-82
2022/01/07 11:19:05;;;;;;;9.50;6.63;;;;;;;3.52;87.63;98165.25;4849664;29;21193;-82
2022/01/07 11:21:34;;;;;;;11.43;6.90;;;;;;;3.55;87.75;98159.13;4847717;29;21456;-82
2022/01/07 11:24:34;;;;;;;14.23;8.60;;;;;;;3.49;87.55;98157.63;4861798;29;20641;-82
2022/01/07 11:27:03;;;;;;;11.60;7.77;;;;;;;3.39;88.17;98161.47;4847564;29;21233;-81
2022/01/07 11:29:36;;;;;;;10.97;7.20;;;;;;;3.33;88.25;98151.41;4846362;29;20645;-82
2022/01/07 11:32:32;;;;;;;10.23;7.43;;;;;;;3.30;88.74;98164.41;4848123;29;20649;-82
2022/01/07 11:35:46;;;;;;;12.27;7.80;;;;;;;3.31;89.46;98152.38;4850736;29;21151;-82
2022/01/07 11:38:39;;;;;;;9.67;6.47;;;;;;;3.34;89.59;98147.94;4848847;29;20660;-82
2022/01/07 11:41:13;;;;;;;10.20;7.00;;;;;;;3.39;90.26;98147.75;4850016;29;20649;-82
2022/01/07 11:43:44;;;;;;;9.27;6.90;;;;;;;3.41;89.71;98146.81;4848958;29;20649;-82
2022/01/07 11:46:28;;;;;;;12.27;7.57;;;;;;;3.48;89.49;98145.63;4832552;29;20650;-82
2022/01/07 11:48:59;;;;;;;12.93;6.97;;;;;;;3.56;90.14;98135.03;4864442;29;20683;-82
2022/01/07 11:51:37;;;;;;;11.30;7.30;;;;;;;3.61;90.40;98138.25;4849876;29;20665;-82